sensor_id;sensor_type;location;lat;lon;timestamp;P1;durP1;ratioP1;P2;durP2;ratioP2
18752;SDS011;9505;50.882;5.350;2022-07-11T00:00:04;9.13;;;3.28;;
18752;SDS011;9505;50.882;5.350;2022-07-11T00:02:32;8.35;;;3.05;;
18752;SDS011;9505;50.882;5.350;2022-07-11T00:04:57;11.38;;;3.45;;
18752;SDS011;9505;50.882;5.350;2022-07-11T00:07:23;12.38;;;3.70;;
18752;SDS011;9505;50.882;5.350;2022-07-11T00:09:49;10.57;;;3.13;;
18752;SDS011;9505;50.882;5.350;2022-07-11T00:12:14;9.20;;;3.25;;
18752;SDS011;9505;50.882;5.350;2022-07-11T00:14:40;11.95;;;4.20;;
18752;SDS011;9505;50.882;5.350;2022-07-11T00:17:07;10.20;;;3.22;;
18752;SDS011;9505;50.882;5.350;2022-07-11T00:19:34;10.02;;;3.42;;
18752;SDS011;9505;50.882;5.350;2022-07-11T00:22:01;9.25;;;3.78;;
18752;SDS011;9505;50.882;5.350;2022-07-11T00:24:27;7.85;;;3.00;;
18752;SDS011;9505;50.882;5.350;2022-07-11T00:26:54;9.82;;;3.15;;
18752;SDS011;9505;50.882;5.350;2022-07-11T00:29:20;6.20;;;3.08;;
18752;SDS011;9505;50.882;5.350;2022-07-11T00:31:45;12.60;;;3.85;;
18752;SDS011;9505;50.882;5.350;2022-07-11T00:34:11;9.45;;;3.17;;
18752;SDS011;9505;50.882;5.350;2022-07-11T00:36:37;13.25;;;3.55;;
18752;SDS011;9505;50.882;5.350;2022-07-11T00:39:03;7.88;;;3.40;;
18752;SDS011;9505;50.882;5.350;2022-07-11T00:41:29;8.52;;;2.92;;
18752;SDS011;9505;50.882;5.350;2022-07-11T00:43:55;11.93;;;3.63;;
18752;SDS011;9505;50.882;5.350;2022-07-11T00:46:22;7.82;;;3.33;;
18752;SDS011;9505;50.882;5.350;2022-07-11T00:48:49;11.40;;;3.97;;
18752;SDS011;9505;50.882;5.350;2022-07-11T00:51:15;10.10;;;3.83;;
18752;SDS011;9505;50.882;5.350;2022-07-11T00:53:46;9.10;;;3.33;;
18752;SDS011;9505;50.882;5.350;2022-07-11T00:56:13;14.20;;;3.63;;
18752;SDS011;9505;50.882;5.350;2022-07-11T00:58:40;10.43;;;3.92;;
18752;SDS011;9505;50.882;5.350;2022-07-11T01:01:06;10.38;;;3.45;;
18752;SDS011;9505;50.882;5.350;2022-07-11T01:03:37;11.60;;;3.40;;
18752;SDS011;9505;50.882;5.350;2022-07-11T01:06:05;9.93;;;3.45;;
18752;SDS011;9505;50.882;5.350;2022-07-11T01:08:31;11.02;;;3.40;;
18752;SDS011;9505;50.882;5.350;2022-07-11T01:11:07;12.50;;;3.28;;
18752;SDS011;9505;50.882;5.350;2022-07-11T01:13:35;8.55;;;3.50;;
18752;SDS011;9505;50.882;5.350;2022-07-11T01:16:07;14.77;;;3.88;;
18752;SDS011;9505;50.882;5.350;2022-07-11T01:18:33;7.25;;;2.78;;
18752;SDS011;9505;50.882;5.350;2022-07-11T01:20:59;9.40;;;3.35;;
18752;SDS011;9505;50.882;5.350;2022-07-11T01:23:24;13.48;;;3.88;;
18752;SDS011;9505;50.882;5.350;2022-07-11T01:25:50;12.00;;;4.00;;
18752;SDS011;9505;50.882;5.350;2022-07-11T01:28:16;14.07;;;4.53;;
18752;SDS011;9505;50.882;5.350;2022-07-11T01:30:42;9.73;;;4.20;;
18752;SDS011;9505;50.882;5.350;2022-07-11T01:33:08;16.83;;;5.07;;
18752;SDS011;9505;50.882;5.350;2022-07-11T01:35:33;12.43;;;4.35;;
18752;SDS011;9505;50.882;5.350;2022-07-11T01:37:59;20.20;;;5.60;;
18752;SDS011;9505;50.882;5.350;2022-07-11T01:40:25;12.75;;;4.65;;
18752;SDS011;9505;50.882;5.350;2022-07-11T01:42:50;9.82;;;3.80;;
18752;SDS011;9505;50.882;5.350;2022-07-11T01:45:16;13.40;;;4.43;;
18752;SDS011;9505;50.882;5.350;2022-07-11T01:47:42;13.68;;;4.53;;
18752;SDS011;9505;50.882;5.350;2022-07-11T01:50:08;11.77;;;4.35;;
18752;SDS011;9505;50.882;5.350;2022-07-11T01:52:33;11.85;;;4.40;;
18752;SDS011;9505;50.882;5.350;2022-07-11T01:55:00;11.90;;;4.38;;
18752;SDS011;9505;50.882;5.350;2022-07-11T01:57:26;16.65;;;5.05;;
18752;SDS011;9505;50.882;5.350;2022-07-11T01:59:51;11.18;;;3.72;;
18752;SDS011;9505;50.882;5.350;2022-07-11T02:02:17;11.70;;;4.35;;
18752;SDS011;9505;50.882;5.350;2022-07-11T02:04:43;10.93;;;4.15;;
18752;SDS011;9505;50.882;5.350;2022-07-11T02:07:08;16.85;;;5.20;;
18752;SDS011;9505;50.882;5.350;2022-07-11T02:09:36;8.55;;;4.18;;
18752;SDS011;9505;50.882;5.350;2022-07-11T02:12:03;13.85;;;4.35;;
18752;SDS011;9505;50.882;5.350;2022-07-11T02:14:29;12.95;;;4.40;;
18752;SDS011;9505;50.882;5.350;2022-07-11T02:16:55;11.63;;;4.80;;
18752;SDS011;9505;50.882;5.350;2022-07-11T02:19:20;8.90;;;4.30;;
18752;SDS011;9505;50.882;5.350;2022-07-11T02:21:46;13.27;;;4.82;;
18752;SDS011;9505;50.882;5.350;2022-07-11T02:24:12;9.75;;;3.97;;
18752;SDS011;9505;50.882;5.350;2022-07-11T02:26:37;5.97;;;3.50;;
18752;SDS011;9505;50.882;5.350;2022-07-11T02:29:03;11.77;;;4.28;;
18752;SDS011;9505;50.882;5.350;2022-07-11T02:31:29;13.80;;;4.57;;
18752;SDS011;9505;50.882;5.350;2022-07-11T02:33:54;15.30;;;4.75;;
18752;SDS011;9505;50.882;5.350;2022-07-11T02:36:20;12.65;;;4.25;;
18752;SDS011;9505;50.882;5.350;2022-07-11T02:38:45;9.70;;;4.30;;
18752;SDS011;9505;50.882;5.350;2022-07-11T02:41:11;14.50;;;5.28;;
18752;SDS011;9505;50.882;5.350;2022-07-11T02:43:37;13.27;;;4.90;;
18752;SDS011;9505;50.882;5.350;2022-07-11T02:46:03;15.15;;;5.18;;
18752;SDS011;9505;50.882;5.350;2022-07-11T02:48:30;15.07;;;5.10;;
18752;SDS011;9505;50.882;5.350;2022-07-11T02:50:57;13.48;;;4.43;;
18752;SDS011;9505;50.882;5.350;2022-07-11T02:53:22;10.75;;;4.28;;
18752;SDS011;9505;50.882;5.350;2022-07-11T02:55:48;14.00;;;5.03;;
18752;SDS011;9505;50.882;5.350;2022-07-11T02:58:14;11.80;;;4.45;;
18752;SDS011;9505;50.882;5.350;2022-07-11T03:00:40;14.43;;;5.40;;
18752;SDS011;9505;50.882;5.350;2022-07-11T03:03:06;10.05;;;4.68;;
18752;SDS011;9505;50.882;5.350;2022-07-11T03:05:31;9.15;;;3.95;;
18752;SDS011;9505;50.882;5.350;2022-07-11T03:07:57;11.93;;;4.10;;
18752;SDS011;9505;50.882;5.350;2022-07-11T03:10:23;13.85;;;4.45;;
18752;SDS011;9505;50.882;5.350;2022-07-11T03:12:49;17.40;;;4.70;;
18752;SDS011;9505;50.882;5.350;2022-07-11T03:15:15;12.73;;;4.32;;
18752;SDS011;9505;50.882;5.350;2022-07-11T03:17:41;14.45;;;5.57;;
18752;SDS011;9505;50.882;5.350;2022-07-11T03:20:07;19.83;;;5.78;;
18752;SDS011;9505;50.882;5.350;2022-07-11T03:22:33;13.50;;;5.03;;
18752;SDS011;9505;50.882;5.350;2022-07-11T03:25:00;14.07;;;4.72;;
18752;SDS011;9505;50.882;5.350;2022-07-11T03:27:26;12.75;;;5.28;;
18752;SDS011;9505;50.882;5.350;2022-07-11T03:29:52;10.82;;;4.60;;
18752;SDS011;9505;50.882;5.350;2022-07-11T03:32:17;14.10;;;5.53;;
18752;SDS011;9505;50.882;5.350;2022-07-11T03:34:45;13.07;;;5.55;;
18752;SDS011;9505;50.882;5.350;2022-07-11T03:37:31;13.90;;;5.80;;
18752;SDS011;9505;50.882;5.350;2022-07-11T03:39:57;11.07;;;5.45;;
18752;SDS011;9505;50.882;5.350;2022-07-11T03:42:23;16.27;;;6.38;;
18752;SDS011;9505;50.882;5.350;2022-07-11T03:44:49;13.27;;;6.22;;
18752;SDS011;9505;50.882;5.350;2022-07-11T03:47:16;18.83;;;6.60;;
18752;SDS011;9505;50.882;5.350;2022-07-11T03:49:42;20.33;;;6.53;;
18752;SDS011;9505;50.882;5.350;2022-07-11T03:52:07;14.02;;;5.72;;
18752;SDS011;9505;50.882;5.350;2022-07-11T03:54:33;17.60;;;6.88;;
18752;SDS011;9505;50.882;5.350;2022-07-11T03:56:59;23.48;;;6.97;;
18752;SDS011;9505;50.882;5.350;2022-07-11T03:59:24;19.75;;;6.47;;
18752;SDS011;9505;50.882;5.350;2022-07-11T04:01:50;17.50;;;6.53;;
18752;SDS011;9505;50.882;5.350;2022-07-11T04:04:16;19.88;;;6.63;;
18752;SDS011;9505;50.882;5.350;2022-07-11T04:06:41;18.70;;;6.85;;
18752;SDS011;9505;50.882;5.350;2022-07-11T04:09:08;17.40;;;5.85;;
18752;SDS011;9505;50.882;5.350;2022-07-11T04:11:35;15.55;;;5.97;;
18752;SDS011;9505;50.882;5.350;2022-07-11T04:14:01;15.68;;;6.25;;
18752;SDS011;9505;50.882;5.350;2022-07-11T04:16:26;15.55;;;6.07;;
18752;SDS011;9505;50.882;5.350;2022-07-11T04:18:52;17.00;;;5.20;;
18752;SDS011;9505;50.882;5.350;2022-07-11T04:21:18;18.50;;;6.55;;
18752;SDS011;9505;50.882;5.350;2022-07-11T04:23:44;14.60;;;6.57;;
18752;SDS011;9505;50.882;5.350;2022-07-11T04:26:09;20.05;;;6.15;;
18752;SDS011;9505;50.882;5.350;2022-07-11T04:28:35;15.95;;;6.28;;
18752;SDS011;9505;50.882;5.350;2022-07-11T04:31:01;15.80;;;6.15;;
18752;SDS011;9505;50.882;5.350;2022-07-11T04:33:27;19.52;;;6.97;;
18752;SDS011;9505;50.882;5.350;2022-07-11T04:35:53;17.08;;;6.20;;
18752;SDS011;9505;50.882;5.350;2022-07-11T04:38:19;16.08;;;6.40;;
18752;SDS011;9505;50.882;5.350;2022-07-11T04:40:46;13.65;;;6.05;;
18752;SDS011;9505;50.882;5.350;2022-07-11T04:43:13;20.05;;;7.60;;
18752;SDS011;9505;50.882;5.350;2022-07-11T04:45:39;21.42;;;7.25;;
18752;SDS011;9505;50.882;5.350;2022-07-11T04:48:05;16.92;;;6.28;;
18752;SDS011;9505;50.882;5.350;2022-07-11T04:50:31;15.93;;;7.05;;
18752;SDS011;9505;50.882;5.350;2022-07-11T04:52:57;26.92;;;8.55;;
18752;SDS011;9505;50.882;5.350;2022-07-11T04:55:22;18.40;;;7.43;;
18752;SDS011;9505;50.882;5.350;2022-07-11T04:57:48;19.23;;;7.47;;
18752;SDS011;9505;50.882;5.350;2022-07-11T05:00:15;23.27;;;8.32;;
18752;SDS011;9505;50.882;5.350;2022-07-11T05:02:41;20.00;;;8.30;;
18752;SDS011;9505;50.882;5.350;2022-07-11T05:05:06;21.25;;;8.63;;
18752;SDS011;9505;50.882;5.350;2022-07-11T05:07:32;23.33;;;10.30;;
18752;SDS011;9505;50.882;5.350;2022-07-11T05:09:58;27.77;;;10.55;;
18752;SDS011;9505;50.882;5.350;2022-07-11T05:12:24;29.20;;;10.15;;
18752;SDS011;9505;50.882;5.350;2022-07-11T05:14:50;24.58;;;10.25;;
18752;SDS011;9505;50.882;5.350;2022-07-11T05:17:15;21.25;;;8.93;;
18752;SDS011;9505;50.882;5.350;2022-07-11T05:19:41;21.13;;;8.77;;
18752;SDS011;9505;50.882;5.350;2022-07-11T05:22:07;19.63;;;6.63;;
18752;SDS011;9505;50.882;5.350;2022-07-11T05:24:32;19.38;;;7.25;;
18752;SDS011;9505;50.882;5.350;2022-07-11T05:26:58;15.25;;;6.22;;
18752;SDS011;9505;50.882;5.350;2022-07-11T05:29:23;13.73;;;6.00;;
18752;SDS011;9505;50.882;5.350;2022-07-11T05:31:49;11.52;;;4.80;;
18752;SDS011;9505;50.882;5.350;2022-07-11T05:34:18;21.60;;;5.60;;
18752;SDS011;9505;50.882;5.350;2022-07-11T05:36:43;13.57;;;5.72;;
18752;SDS011;9505;50.882;5.350;2022-07-11T05:39:09;14.70;;;6.20;;
18752;SDS011;9505;50.882;5.350;2022-07-11T05:41:35;20.33;;;6.50;;
18752;SDS011;9505;50.882;5.350;2022-07-11T05:44:01;15.80;;;6.40;;
18752;SDS011;9505;50.882;5.350;2022-07-11T05:46:26;23.55;;;6.63;;
18752;SDS011;9505;50.882;5.350;2022-07-11T05:48:52;17.58;;;6.93;;
18752;SDS011;9505;50.882;5.350;2022-07-11T05:51:17;18.58;;;6.55;;
18752;SDS011;9505;50.882;5.350;2022-07-11T05:53:44;15.95;;;6.32;;
18752;SDS011;9505;50.882;5.350;2022-07-11T05:56:09;16.00;;;7.32;;
18752;SDS011;9505;50.882;5.350;2022-07-11T05:58:35;14.32;;;6.07;;
18752;SDS011;9505;50.882;5.350;2022-07-11T06:01:01;21.17;;;6.97;;
18752;SDS011;9505;50.882;5.350;2022-07-11T06:03:26;23.50;;;7.68;;
18752;SDS011;9505;50.882;5.350;2022-07-11T06:05:52;18.23;;;7.20;;
18752;SDS011;9505;50.882;5.350;2022-07-11T06:08:18;18.02;;;8.02;;
18752;SDS011;9505;50.882;5.350;2022-07-11T06:11:02;24.77;;;8.75;;
18752;SDS011;9505;50.882;5.350;2022-07-11T06:13:28;22.52;;;8.80;;
18752;SDS011;9505;50.882;5.350;2022-07-11T06:15:55;25.80;;;8.50;;
18752;SDS011;9505;50.882;5.350;2022-07-11T06:18:22;18.77;;;8.13;;
18752;SDS011;9505;50.882;5.350;2022-07-11T06:20:48;20.77;;;7.20;;
18752;SDS011;9505;50.882;5.350;2022-07-11T06:23:14;101.20;;;18.67;;
18752;SDS011;9505;50.882;5.350;2022-07-11T06:25:40;21.55;;;7.18;;
18752;SDS011;9505;50.882;5.350;2022-07-11T06:28:05;25.42;;;8.13;;
18752;SDS011;9505;50.882;5.350;2022-07-11T06:30:32;26.38;;;7.22;;
18752;SDS011;9505;50.882;5.350;2022-07-11T06:32:57;23.85;;;6.95;;
18752;SDS011;9505;50.882;5.350;2022-07-11T06:35:23;19.27;;;6.75;;
18752;SDS011;9505;50.882;5.350;2022-07-11T06:37:49;13.35;;;5.78;;
18752;SDS011;9505;50.882;5.350;2022-07-11T06:40:14;39.85;;;9.88;;
18752;SDS011;9505;50.882;5.350;2022-07-11T06:42:42;62.47;;;13.02;;
18752;SDS011;9505;50.882;5.350;2022-07-11T06:45:08;15.02;;;4.63;;
18752;SDS011;9505;50.882;5.350;2022-07-11T06:47:34;14.05;;;4.78;;
18752;SDS011;9505;50.882;5.350;2022-07-11T06:50:00;43.25;;;9.35;;
18752;SDS011;9505;50.882;5.350;2022-07-11T06:52:26;20.90;;;5.65;;
18752;SDS011;9505;50.882;5.350;2022-07-11T06:54:52;77.57;;;13.60;;
18752;SDS011;9505;50.882;5.350;2022-07-11T06:57:17;17.02;;;5.45;;
18752;SDS011;9505;50.882;5.350;2022-07-11T06:59:43;21.95;;;5.85;;
18752;SDS011;9505;50.882;5.350;2022-07-11T07:02:09;24.90;;;6.05;;
18752;SDS011;9505;50.882;5.350;2022-07-11T07:04:35;17.30;;;4.88;;
18752;SDS011;9505;50.882;5.350;2022-07-11T07:07:01;15.05;;;4.68;;
18752;SDS011;9505;50.882;5.350;2022-07-11T07:09:27;16.88;;;4.88;;
18752;SDS011;9505;50.882;5.350;2022-07-11T07:11:54;14.68;;;4.15;;
18752;SDS011;9505;50.882;5.350;2022-07-11T07:14:20;16.42;;;5.15;;
18752;SDS011;9505;50.882;5.350;2022-07-11T07:16:46;11.35;;;4.38;;
18752;SDS011;9505;50.882;5.350;2022-07-11T07:19:12;23.88;;;5.07;;
18752;SDS011;9505;50.882;5.350;2022-07-11T07:21:38;13.55;;;4.07;;
18752;SDS011;9505;50.882;5.350;2022-07-11T07:24:04;10.85;;;3.65;;
18752;SDS011;9505;50.882;5.350;2022-07-11T07:26:30;15.20;;;3.92;;
18752;SDS011;9505;50.882;5.350;2022-07-11T07:28:57;16.23;;;4.10;;
18752;SDS011;9505;50.882;5.350;2022-07-11T07:31:23;9.52;;;3.67;;
18752;SDS011;9505;50.882;5.350;2022-07-11T07:33:49;13.00;;;3.47;;
18752;SDS011;9505;50.882;5.350;2022-07-11T07:36:15;11.38;;;3.60;;
18752;SDS011;9505;50.882;5.350;2022-07-11T07:38:41;8.32;;;3.13;;
18752;SDS011;9505;50.882;5.350;2022-07-11T07:41:11;14.40;;;3.28;;
18752;SDS011;9505;50.882;5.350;2022-07-11T07:43:38;9.70;;;3.28;;
18752;SDS011;9505;50.882;5.350;2022-07-11T07:46:04;11.57;;;3.63;;
18752;SDS011;9505;50.882;5.350;2022-07-11T07:48:30;12.70;;;3.85;;
18752;SDS011;9505;50.882;5.350;2022-07-11T07:50:55;10.07;;;3.42;;
18752;SDS011;9505;50.882;5.350;2022-07-11T07:53:21;14.63;;;3.67;;
18752;SDS011;9505;50.882;5.350;2022-07-11T07:55:47;7.65;;;2.70;;
18752;SDS011;9505;50.882;5.350;2022-07-11T07:58:14;6.13;;;2.85;;
18752;SDS011;9505;50.882;5.350;2022-07-11T08:00:40;9.73;;;3.63;;
18752;SDS011;9505;50.882;5.350;2022-07-11T08:03:23;10.90;;;3.28;;
18752;SDS011;9505;50.882;5.350;2022-07-11T08:05:49;8.35;;;3.00;;
18752;SDS011;9505;50.882;5.350;2022-07-11T08:08:15;9.05;;;2.92;;
18752;SDS011;9505;50.882;5.350;2022-07-11T08:10:40;13.63;;;4.00;;
18752;SDS011;9505;50.882;5.350;2022-07-11T08:13:06;11.40;;;3.35;;
18752;SDS011;9505;50.882;5.350;2022-07-11T08:15:31;13.88;;;3.53;;
18752;SDS011;9505;50.882;5.350;2022-07-11T08:17:58;14.00;;;3.78;;
18752;SDS011;9505;50.882;5.350;2022-07-11T08:20:24;11.73;;;3.97;;
18752;SDS011;9505;50.882;5.350;2022-07-11T08:22:58;12.73;;;3.80;;
18752;SDS011;9505;50.882;5.350;2022-07-11T08:25:29;14.35;;;3.78;;
18752;SDS011;9505;50.882;5.350;2022-07-11T08:27:55;8.65;;;3.40;;
18752;SDS011;9505;50.882;5.350;2022-07-11T08:30:21;11.55;;;3.58;;
18752;SDS011;9505;50.882;5.350;2022-07-11T08:32:46;8.40;;;3.03;;
18752;SDS011;9505;50.882;5.350;2022-07-11T08:35:12;11.18;;;3.05;;
18752;SDS011;9505;50.882;5.350;2022-07-11T08:37:40;11.63;;;3.90;;
18752;SDS011;9505;50.882;5.350;2022-07-11T08:40:06;8.88;;;3.35;;
18752;SDS011;9505;50.882;5.350;2022-07-11T08:42:32;13.32;;;4.30;;
18752;SDS011;9505;50.882;5.350;2022-07-11T08:45:10;12.95;;;4.13;;
18752;SDS011;9505;50.882;5.350;2022-07-11T08:47:39;11.48;;;3.80;;
18752;SDS011;9505;50.882;5.350;2022-07-11T08:50:06;14.65;;;2.80;;
18752;SDS011;9505;50.882;5.350;2022-07-11T08:52:33;13.88;;;3.65;;
18752;SDS011;9505;50.882;5.350;2022-07-11T08:54:59;12.77;;;3.97;;
18752;SDS011;9505;50.882;5.350;2022-07-11T08:57:25;12.10;;;3.58;;
18752;SDS011;9505;50.882;5.350;2022-07-11T08:59:54;13.63;;;3.17;;
18752;SDS011;9505;50.882;5.350;2022-07-11T09:02:22;8.10;;;3.22;;
18752;SDS011;9505;50.882;5.350;2022-07-11T09:04:49;12.70;;;3.35;;
18752;SDS011;9505;50.882;5.350;2022-07-11T09:07:15;11.00;;;3.03;;
18752;SDS011;9505;50.882;5.350;2022-07-11T09:09:40;13.52;;;3.20;;
18752;SDS011;9505;50.882;5.350;2022-07-11T09:12:10;7.88;;;2.85;;
18752;SDS011;9505;50.882;5.350;2022-07-11T09:14:37;7.72;;;2.53;;
18752;SDS011;9505;50.882;5.350;2022-07-11T09:17:03;6.40;;;2.38;;
18752;SDS011;9505;50.882;5.350;2022-07-11T09:19:31;17.50;;;3.60;;
18752;SDS011;9505;50.882;5.350;2022-07-11T09:21:59;12.80;;;3.05;;
18752;SDS011;9505;50.882;5.350;2022-07-11T09:28:04;15.60;;;3.47;;
18752;SDS011;9505;50.882;5.350;2022-07-11T09:30:34;14.48;;;4.03;;
18752;SDS011;9505;50.882;5.350;2022-07-11T09:33:04;11.82;;;3.15;;
18752;SDS011;9505;50.882;5.350;2022-07-11T09:35:32;13.10;;;4.18;;
18752;SDS011;9505;50.882;5.350;2022-07-11T09:38:11;10.57;;;3.38;;
18752;SDS011;9505;50.882;5.350;2022-07-11T09:40:38;16.73;;;4.07;;
18752;SDS011;9505;50.882;5.350;2022-07-11T09:43:07;12.00;;;3.80;;
18752;SDS011;9505;50.882;5.350;2022-07-11T09:45:34;16.42;;;4.22;;
18752;SDS011;9505;50.882;5.350;2022-07-11T09:48:01;14.02;;;4.07;;
18752;SDS011;9505;50.882;5.350;2022-07-11T09:50:33;14.25;;;4.60;;
18752;SDS011;9505;50.882;5.350;2022-07-11T09:53:03;9.25;;;3.50;;
18752;SDS011;9505;50.882;5.350;2022-07-11T09:55:34;18.42;;;3.80;;
18752;SDS011;9505;50.882;5.350;2022-07-11T09:58:07;17.40;;;3.40;;
18752;SDS011;9505;50.882;5.350;2022-07-11T10:00:35;15.43;;;3.72;;
18752;SDS011;9505;50.882;5.350;2022-07-11T10:03:02;9.40;;;2.65;;
18752;SDS011;9505;50.882;5.350;2022-07-11T10:05:29;13.57;;;4.13;;
18752;SDS011;9505;50.882;5.350;2022-07-11T10:07:58;15.43;;;3.17;;
18752;SDS011;9505;50.882;5.350;2022-07-11T10:10:25;13.25;;;3.50;;
18752;SDS011;9505;50.882;5.350;2022-07-11T10:12:52;9.98;;;3.10;;
18752;SDS011;9505;50.882;5.350;2022-07-11T10:15:28;10.27;;;2.90;;
18752;SDS011;9505;50.882;5.350;2022-07-11T10:28:48;7.50;;;2.30;;
18752;SDS011;9505;50.882;5.350;2022-07-11T10:31:23;15.90;;;3.08;;
18752;SDS011;9505;50.882;5.350;2022-07-11T10:34:02;9.55;;;2.67;;
18752;SDS011;9505;50.882;5.350;2022-07-11T10:36:30;6.68;;;2.38;;
18752;SDS011;9505;50.882;5.350;2022-07-11T10:39:22;6.70;;;2.63;;
18752;SDS011;9505;50.882;5.350;2022-07-11T10:41:56;21.83;;;4.10;;
18752;SDS011;9505;50.882;5.350;2022-07-11T10:44:22;12.32;;;2.72;;
18752;SDS011;9505;50.882;5.350;2022-07-11T10:46:49;12.77;;;2.80;;
18752;SDS011;9505;50.882;5.350;2022-07-11T10:59:32;8.07;;;2.40;;
18752;SDS011;9505;50.882;5.350;2022-07-11T11:02:11;9.57;;;2.28;;
18752;SDS011;9505;50.882;5.350;2022-07-11T11:07:29;8.90;;;2.40;;
18752;SDS011;9505;50.882;5.350;2022-07-11T11:15:44;8.13;;;2.30;;
18752;SDS011;9505;50.882;5.350;2022-07-11T11:23:23;10.25;;;2.30;;
18752;SDS011;9505;50.882;5.350;2022-07-11T11:25:49;15.50;;;3.28;;
18752;SDS011;9505;50.882;5.350;2022-07-11T11:28:19;6.93;;;2.10;;
18752;SDS011;9505;50.882;5.350;2022-07-11T11:30:52;7.03;;;2.13;;
18752;SDS011;9505;50.882;5.350;2022-07-11T11:33:20;8.07;;;1.90;;
18752;SDS011;9505;50.882;5.350;2022-07-11T11:35:58;9.80;;;2.38;;
18752;SDS011;9505;50.882;5.350;2022-07-11T11:38:27;12.63;;;2.83;;
18752;SDS011;9505;50.882;5.350;2022-07-11T11:40:53;6.43;;;2.05;;
18752;SDS011;9505;50.882;5.350;2022-07-11T11:43:20;17.65;;;3.80;;
18752;SDS011;9505;50.882;5.350;2022-07-11T11:45:46;6.72;;;1.90;;
18752;SDS011;9505;50.882;5.350;2022-07-11T11:48:32;8.68;;;1.88;;
18752;SDS011;9505;50.882;5.350;2022-07-11T11:51:09;10.43;;;2.17;;
18752;SDS011;9505;50.882;5.350;2022-07-11T11:58:38;5.25;;;1.88;;
18752;SDS011;9505;50.882;5.350;2022-07-11T12:01:08;7.63;;;2.00;;
18752;SDS011;9505;50.882;5.350;2022-07-11T12:03:48;8.55;;;1.92;;
18752;SDS011;9505;50.882;5.350;2022-07-11T12:06:14;5.88;;;2.03;;
18752;SDS011;9505;50.882;5.350;2022-07-11T12:08:40;7.43;;;2.10;;
18752;SDS011;9505;50.882;5.350;2022-07-11T12:11:06;8.55;;;2.65;;
18752;SDS011;9505;50.882;5.350;2022-07-11T12:13:37;6.28;;;2.30;;
18752;SDS011;9505;50.882;5.350;2022-07-11T12:16:11;5.90;;;2.03;;
18752;SDS011;9505;50.882;5.350;2022-07-11T12:18:56;8.30;;;2.70;;
18752;SDS011;9505;50.882;5.350;2022-07-11T12:21:23;11.82;;;2.63;;
18752;SDS011;9505;50.882;5.350;2022-07-11T12:23:49;7.35;;;2.42;;
18752;SDS011;9505;50.882;5.350;2022-07-11T12:26:15;9.63;;;3.35;;
18752;SDS011;9505;50.882;5.350;2022-07-11T12:31:39;8.65;;;3.22;;
18752;SDS011;9505;50.882;5.350;2022-07-11T12:34:08;9.27;;;3.03;;
18752;SDS011;9505;50.882;5.350;2022-07-11T12:36:34;7.45;;;3.03;;
18752;SDS011;9505;50.882;5.350;2022-07-11T12:38:59;10.75;;;3.33;;
18752;SDS011;9505;50.882;5.350;2022-07-11T12:41:25;13.65;;;3.45;;
18752;SDS011;9505;50.882;5.350;2022-07-11T12:43:51;8.30;;;2.80;;
18752;SDS011;9505;50.882;5.350;2022-07-11T12:46:37;13.95;;;3.47;;
18752;SDS011;9505;50.882;5.350;2022-07-11T12:49:04;6.60;;;2.30;;
18752;SDS011;9505;50.882;5.350;2022-07-11T12:51:31;5.13;;;1.65;;
18752;SDS011;9505;50.882;5.350;2022-07-11T12:54:06;9.00;;;2.40;;
18752;SDS011;9505;50.882;5.350;2022-07-11T12:56:34;8.02;;;2.25;;
18752;SDS011;9505;50.882;5.350;2022-07-11T12:59:00;10.10;;;2.55;;
18752;SDS011;9505;50.882;5.350;2022-07-11T13:01:28;9.80;;;2.35;;
18752;SDS011;9505;50.882;5.350;2022-07-11T13:03:56;9.13;;;2.38;;
18752;SDS011;9505;50.882;5.350;2022-07-11T13:06:22;8.63;;;2.38;;
18752;SDS011;9505;50.882;5.350;2022-07-11T13:09:06;7.30;;;2.20;;
18752;SDS011;9505;50.882;5.350;2022-07-11T13:11:33;8.85;;;2.33;;
18752;SDS011;9505;50.882;5.350;2022-07-11T13:13:59;7.20;;;2.28;;
18752;SDS011;9505;50.882;5.350;2022-07-11T13:16:25;9.55;;;2.00;;
18752;SDS011;9505;50.882;5.350;2022-07-11T13:18:51;11.20;;;2.08;;
18752;SDS011;9505;50.882;5.350;2022-07-11T13:21:17;5.65;;;1.80;;
18752;SDS011;9505;50.882;5.350;2022-07-11T13:23:44;6.43;;;1.98;;
18752;SDS011;9505;50.882;5.350;2022-07-11T13:26:10;8.90;;;2.10;;
18752;SDS011;9505;50.882;5.350;2022-07-11T13:28:36;7.25;;;1.80;;
18752;SDS011;9505;50.882;5.350;2022-07-11T13:31:03;8.77;;;2.42;;
18752;SDS011;9505;50.882;5.350;2022-07-11T13:33:33;9.18;;;2.03;;
18752;SDS011;9505;50.882;5.350;2022-07-11T13:35:59;7.78;;;2.38;;
18752;SDS011;9505;50.882;5.350;2022-07-11T13:38:25;5.55;;;1.98;;
18752;SDS011;9505;50.882;5.350;2022-07-11T13:40:51;4.82;;;1.60;;
18752;SDS011;9505;50.882;5.350;2022-07-11T13:43:17;8.57;;;2.33;;
18752;SDS011;9505;50.882;5.350;2022-07-11T13:45:43;5.68;;;2.05;;
18752;SDS011;9505;50.882;5.350;2022-07-11T13:48:09;5.47;;;2.13;;
18752;SDS011;9505;50.882;5.350;2022-07-11T13:50:35;9.13;;;2.17;;
18752;SDS011;9505;50.882;5.350;2022-07-11T13:53:01;6.57;;;2.20;;
18752;SDS011;9505;50.882;5.350;2022-07-11T13:55:27;10.48;;;2.55;;
18752;SDS011;9505;50.882;5.350;2022-07-11T13:57:56;7.72;;;2.28;;
18752;SDS011;9505;50.882;5.350;2022-07-11T14:00:24;9.73;;;2.25;;
18752;SDS011;9505;50.882;5.350;2022-07-11T14:02:50;3.80;;;1.60;;
18752;SDS011;9505;50.882;5.350;2022-07-11T14:05:18;10.38;;;2.70;;
18752;SDS011;9505;50.882;5.350;2022-07-11T14:07:45;14.20;;;2.92;;
18752;SDS011;9505;50.882;5.350;2022-07-11T14:10:11;29.10;;;5.82;;
18752;SDS011;9505;50.882;5.350;2022-07-11T14:12:37;25.38;;;3.75;;
18752;SDS011;9505;50.882;5.350;2022-07-11T14:15:03;28.85;;;5.95;;
18752;SDS011;9505;50.882;5.350;2022-07-11T14:17:30;21.38;;;4.85;;
18752;SDS011;9505;50.882;5.350;2022-07-11T14:19:56;11.05;;;3.03;;
18752;SDS011;9505;50.882;5.350;2022-07-11T14:22:22;15.43;;;3.60;;
18752;SDS011;9505;50.882;5.350;2022-07-11T14:24:48;28.25;;;5.80;;
18752;SDS011;9505;50.882;5.350;2022-07-11T14:27:14;16.52;;;4.53;;
18752;SDS011;9505;50.882;5.350;2022-07-11T14:29:41;7.57;;;2.90;;
18752;SDS011;9505;50.882;5.350;2022-07-11T14:32:07;37.70;;;7.45;;
18752;SDS011;9505;50.882;5.350;2022-07-11T14:34:33;23.23;;;5.55;;
18752;SDS011;9505;50.882;5.350;2022-07-11T14:36:58;9.27;;;2.50;;
18752;SDS011;9505;50.882;5.350;2022-07-11T14:39:24;6.65;;;2.40;;
18752;SDS011;9505;50.882;5.350;2022-07-11T14:41:50;18.75;;;4.57;;
18752;SDS011;9505;50.882;5.350;2022-07-11T14:44:16;23.65;;;5.50;;
18752;SDS011;9505;50.882;5.350;2022-07-11T14:46:42;5.97;;;2.38;;
18752;SDS011;9505;50.882;5.350;2022-07-11T14:49:07;12.15;;;2.78;;
18752;SDS011;9505;50.882;5.350;2022-07-11T14:51:34;26.50;;;6.10;;
18752;SDS011;9505;50.882;5.350;2022-07-11T14:54:00;25.35;;;5.45;;
18752;SDS011;9505;50.882;5.350;2022-07-11T14:56:26;7.28;;;1.98;;
18752;SDS011;9505;50.882;5.350;2022-07-11T14:58:52;14.15;;;3.03;;
18752;SDS011;9505;50.882;5.350;2022-07-11T15:01:17;31.58;;;6.18;;
18752;SDS011;9505;50.882;5.350;2022-07-11T15:03:43;17.52;;;3.80;;
18752;SDS011;9505;50.882;5.350;2022-07-11T15:06:09;8.90;;;2.40;;
18752;SDS011;9505;50.882;5.350;2022-07-11T15:08:39;6.07;;;2.20;;
18752;SDS011;9505;50.882;5.350;2022-07-11T15:11:24;25.23;;;5.32;;
18752;SDS011;9505;50.882;5.350;2022-07-11T15:14:09;30.15;;;5.80;;
18752;SDS011;9505;50.882;5.350;2022-07-11T15:16:36;23.60;;;5.00;;
18752;SDS011;9505;50.882;5.350;2022-07-11T15:19:03;12.43;;;3.08;;
18752;SDS011;9505;50.882;5.350;2022-07-11T15:21:30;7.93;;;2.20;;
18752;SDS011;9505;50.882;5.350;2022-07-11T15:23:57;18.88;;;3.90;;
18752;SDS011;9505;50.882;5.350;2022-07-11T15:26:23;17.70;;;3.70;;
18752;SDS011;9505;50.882;5.350;2022-07-11T15:28:49;20.40;;;4.70;;
18752;SDS011;9505;50.882;5.350;2022-07-11T15:31:16;10.50;;;2.85;;
18752;SDS011;9505;50.882;5.350;2022-07-11T15:33:42;19.77;;;4.38;;
18752;SDS011;9505;50.882;5.350;2022-07-11T15:36:13;28.50;;;5.25;;